sensor_id;sensor_type;location;lat;lon;timestamp;P1;durP1;ratioP1;P2;durP2;ratioP2
32705;SDS011;19094;50.972;3.538;2022-10-17T00:01:13;14.25;;;6.15;;
32705;SDS011;19094;50.972;3.538;2022-10-17T00:03:40;18.60;;;6.55;;
32705;SDS011;19094;50.972;3.538;2022-10-17T00:06:07;13.07;;;6.43;;
32705;SDS011;19094;50.972;3.538;2022-10-17T00:08:35;10.35;;;6.32;;
32705;SDS011;19094;50.972;3.538;2022-10-17T00:11:03;13.70;;;6.13;;
32705;SDS011;19094;50.972;3.538;2022-10-17T00:13:31;16.15;;;6.47;;
32705;SDS011;19094;50.972;3.538;2022-10-17T00:15:57;9.90;;;6.25;;
32705;SDS011;19094;50.972;3.538;2022-10-17T00:18:25;13.82;;;6.45;;
32705;SDS011;19094;50.972;3.538;2022-10-17T00:20:51;12.93;;;6.57;;
32705;SDS011;19094;50.972;3.538;2022-10-17T00:23:17;9.80;;;5.93;;
32705;SDS011;19094;50.972;3.538;2022-10-17T00:25:43;13.02;;;6.80;;
32705;SDS011;19094;50.972;3.538;2022-10-17T00:28:10;12.10;;;6.15;;
32705;SDS011;19094;50.972;3.538;2022-10-17T00:30:37;12.02;;;6.28;;
32705;SDS011;19094;50.972;3.538;2022-10-17T00:33:03;11.43;;;6.70;;
32705;SDS011;19094;50.972;3.538;2022-10-17T00:35:29;14.18;;;6.22;;
32705;SDS011;19094;50.972;3.538;2022-10-17T00:37:55;12.43;;;6.13;;
32705;SDS011;19094;50.972;3.538;2022-10-17T00:40:21;11.73;;;6.00;;
32705;SDS011;19094;50.972;3.538;2022-10-17T00:42:47;13.95;;;6.10;;
32705;SDS011;19094;50.972;3.538;2022-10-17T00:47:44;27.75;;;6.45;;
32705;SDS011;19094;50.972;3.538;2022-10-17T00:50:13;13.45;;;6.63;;
32705;SDS011;19094;50.972;3.538;2022-10-17T00:52:39;13.57;;;6.13;;
32705;SDS011;19094;50.972;3.538;2022-10-17T00:57:34;13.48;;;5.75;;
32705;SDS011;19094;50.972;3.538;2022-10-17T01:00:05;9.18;;;5.57;;
32705;SDS011;19094;50.972;3.538;2022-10-17T01:02:33;11.68;;;5.50;;
32705;SDS011;19094;50.972;3.538;2022-10-17T01:05:01;14.02;;;5.35;;
32705;SDS011;19094;50.972;3.538;2022-10-17T01:07:27;10.30;;;4.93;;
32705;SDS011;19094;50.972;3.538;2022-10-17T01:09:54;8.80;;;4.80;;
32705;SDS011;19094;50.972;3.538;2022-10-17T01:17:48;15.10;;;5.47;;
32705;SDS011;19094;50.972;3.538;2022-10-17T01:34:21;9.40;;;4.40;;
32705;SDS011;19094;50.972;3.538;2022-10-17T01:37:03;18.60;;;5.22;;
32705;SDS011;19094;50.972;3.538;2022-10-17T01:39:48;16.23;;;5.57;;
32705;SDS011;19094;50.972;3.538;2022-10-17T01:42:20;8.95;;;4.60;;
32705;SDS011;19094;50.972;3.538;2022-10-17T01:45:05;11.70;;;5.00;;
32705;SDS011;19094;50.972;3.538;2022-10-17T01:47:36;8.57;;;5.10;;
32705;SDS011;19094;50.972;3.538;2022-10-17T01:50:09;10.70;;;4.85;;
32705;SDS011;19094;50.972;3.538;2022-10-17T01:52:52;12.38;;;5.10;;
32705;SDS011;19094;50.972;3.538;2022-10-17T01:55:30;11.48;;;5.22;;
32705;SDS011;19094;50.972;3.538;2022-10-17T01:58:06;11.85;;;5.22;;
32705;SDS011;19094;50.972;3.538;2022-10-17T02:00:48;8.48;;;4.82;;
32705;SDS011;19094;50.972;3.538;2022-10-17T02:03:16;12.88;;;5.07;;
32705;SDS011;19094;50.972;3.538;2022-10-17T02:05:45;10.48;;;5.38;;
32705;SDS011;19094;50.972;3.538;2022-10-17T02:08:11;11.75;;;5.07;;
32705;SDS011;19094;50.972;3.538;2022-10-17T02:10:38;13.85;;;5.18;;
32705;SDS011;19094;50.972;3.538;2022-10-17T02:13:22;9.18;;;5.10;;
32705;SDS011;19094;50.972;3.538;2022-10-17T02:21:13;7.25;;;4.80;;
32705;SDS011;19094;50.972;3.538;2022-10-17T02:26:31;10.60;;;5.20;;
32705;SDS011;19094;50.972;3.538;2022-10-17T02:29:17;10.45;;;5.57;;
32705;SDS011;19094;50.972;3.538;2022-10-17T02:31:46;13.18;;;5.53;;
32705;SDS011;19094;50.972;3.538;2022-10-17T02:34:30;11.82;;;5.28;;
32705;SDS011;19094;50.972;3.538;2022-10-17T02:37:06;9.82;;;5.38;;
32705;SDS011;19094;50.972;3.538;2022-10-17T02:39:34;8.18;;;5.38;;
32705;SDS011;19094;50.972;3.538;2022-10-17T02:42:02;11.18;;;5.72;;
32705;SDS011;19094;50.972;3.538;2022-10-17T02:44:32;11.10;;;4.88;;
32705;SDS011;19094;50.972;3.538;2022-10-17T02:47:10;10.48;;;6.05;;
32705;SDS011;19094;50.972;3.538;2022-10-17T02:49:52;10.50;;;5.00;;
32705;SDS011;19094;50.972;3.538;2022-10-17T02:52:28;11.10;;;5.72;;
32705;SDS011;19094;50.972;3.538;2022-10-17T02:54:56;10.10;;;5.33;;
32705;SDS011;19094;50.972;3.538;2022-10-17T03:00:00;11.00;;;5.45;;
32705;SDS011;19094;50.972;3.538;2022-10-17T03:02:35;20.17;;;6.20;;
32705;SDS011;19094;50.972;3.538;2022-10-17T03:05:07;11.85;;;5.97;;
32705;SDS011;19094;50.972;3.538;2022-10-17T03:07:34;16.88;;;6.07;;
32705;SDS011;19094;50.972;3.538;2022-10-17T03:10:00;15.10;;;5.65;;
32705;SDS011;19094;50.972;3.538;2022-10-17T03:12:25;14.90;;;6.47;;
32705;SDS011;19094;50.972;3.538;2022-10-17T03:14:52;14.48;;;6.28;;
32705;SDS011;19094;50.972;3.538;2022-10-17T03:17:18;13.20;;;5.78;;
32705;SDS011;19094;50.972;3.538;2022-10-17T03:19:44;12.40;;;5.25;;
32705;SDS011;19094;50.972;3.538;2022-10-17T03:22:09;19.73;;;5.78;;
32705;SDS011;19094;50.972;3.538;2022-10-17T03:24:35;24.52;;;6.05;;
32705;SDS011;19094;50.972;3.538;2022-10-17T03:27:01;13.50;;;5.97;;
32705;SDS011;19094;50.972;3.538;2022-10-17T03:29:26;21.50;;;7.15;;
32705;SDS011;19094;50.972;3.538;2022-10-17T03:31:52;12.18;;;5.78;;
32705;SDS011;19094;50.972;3.538;2022-10-17T03:34:17;20.25;;;6.05;;
32705;SDS011;19094;50.972;3.538;2022-10-17T03:36:44;16.52;;;6.20;;
32705;SDS011;19094;50.972;3.538;2022-10-17T03:39:10;16.80;;;6.03;;
32705;SDS011;19094;50.972;3.538;2022-10-17T03:41:36;13.80;;;6.18;;
32705;SDS011;19094;50.972;3.538;2022-10-17T03:44:01;11.57;;;6.38;;
32705;SDS011;19094;50.972;3.538;2022-10-17T03:46:28;14.15;;;6.40;;
32705;SDS011;19094;50.972;3.538;2022-10-17T03:48:54;16.65;;;7.68;;
32705;SDS011;19094;50.972;3.538;2022-10-17T03:51:20;12.32;;;6.18;;
32705;SDS011;19094;50.972;3.538;2022-10-17T03:53:46;11.10;;;6.75;;
32705;SDS011;19094;50.972;3.538;2022-10-17T03:56:16;12.98;;;6.30;;
32705;SDS011;19094;50.972;3.538;2022-10-17T03:58:49;15.55;;;6.25;;
32705;SDS011;19094;50.972;3.538;2022-10-17T04:01:15;16.92;;;6.45;;
32705;SDS011;19094;50.972;3.538;2022-10-17T04:03:42;14.75;;;6.60;;
32705;SDS011;19094;50.972;3.538;2022-10-17T04:06:12;11.75;;;6.50;;
32705;SDS011;19094;50.972;3.538;2022-10-17T04:08:37;9.25;;;6.13;;
32705;SDS011;19094;50.972;3.538;2022-10-17T04:11:04;10.82;;;5.90;;
32705;SDS011;19094;50.972;3.538;2022-10-17T04:13:31;9.55;;;5.97;;
32705;SDS011;19094;50.972;3.538;2022-10-17T04:16:02;11.13;;;6.43;;
32705;SDS011;19094;50.972;3.538;2022-10-17T04:18:29;16.35;;;6.40;;
32705;SDS011;19094;50.972;3.538;2022-10-17T04:20:55;12.55;;;6.15;;
32705;SDS011;19094;50.972;3.538;2022-10-17T04:23:24;14.88;;;6.68;;
32705;SDS011;19094;50.972;3.538;2022-10-17T04:25:54;16.70;;;6.18;;
32705;SDS011;19094;50.972;3.538;2022-10-17T04:28:24;13.52;;;6.50;;
32705;SDS011;19094;50.972;3.538;2022-10-17T04:30:57;17.25;;;6.78;;
32705;SDS011;19094;50.972;3.538;2022-10-17T04:33:27;13.07;;;6.50;;
32705;SDS011;19094;50.972;3.538;2022-10-17T04:36:00;13.88;;;6.90;;
32705;SDS011;19094;50.972;3.538;2022-10-17T04:38:27;13.82;;;6.38;;
32705;SDS011;19094;50.972;3.538;2022-10-17T04:40:53;13.18;;;6.30;;
32705;SDS011;19094;50.972;3.538;2022-10-17T04:43:21;14.73;;;7.00;;
32705;SDS011;19094;50.972;3.538;2022-10-17T04:45:46;12.68;;;7.45;;
32705;SDS011;19094;50.972;3.538;2022-10-17T04:48:12;25.88;;;7.80;;
32705;SDS011;19094;50.972;3.538;2022-10-17T04:50:39;19.80;;;7.10;;
32705;SDS011;19094;50.972;3.538;2022-10-17T04:53:06;15.05;;;6.80;;
32705;SDS011;19094;50.972;3.538;2022-10-17T04:55:35;13.50;;;6.97;;
32705;SDS011;19094;50.972;3.538;2022-10-17T04:58:01;17.60;;;7.15;;
32705;SDS011;19094;50.972;3.538;2022-10-17T05:00:27;15.70;;;7.15;;
32705;SDS011;19094;50.972;3.538;2022-10-17T05:02:53;16.33;;;7.30;;
32705;SDS011;19094;50.972;3.538;2022-10-17T05:05:18;14.55;;;6.50;;
32705;SDS011;19094;50.972;3.538;2022-10-17T05:07:44;15.13;;;6.65;;
32705;SDS011;19094;50.972;3.538;2022-10-17T05:10:10;14.05;;;6.68;;
32705;SDS011;19094;50.972;3.538;2022-10-17T05:12:35;14.18;;;6.43;;
32705;SDS011;19094;50.972;3.538;2022-10-17T05:15:02;17.52;;;8.05;;
32705;SDS011;19094;50.972;3.538;2022-10-17T05:17:28;17.45;;;7.22;;
32705;SDS011;19094;50.972;3.538;2022-10-17T05:19:54;18.90;;;7.80;;
32705;SDS011;19094;50.972;3.538;2022-10-17T05:22:19;17.77;;;7.53;;
32705;SDS011;19094;50.972;3.538;2022-10-17T05:24:45;21.95;;;7.35;;
32705;SDS011;19094;50.972;3.538;2022-10-17T05:27:10;20.25;;;6.60;;
32705;SDS011;19094;50.972;3.538;2022-10-17T05:29:39;15.38;;;6.78;;
32705;SDS011;19094;50.972;3.538;2022-10-17T05:32:04;13.57;;;7.05;;
32705;SDS011;19094;50.972;3.538;2022-10-17T05:34:30;14.07;;;6.80;;
32705;SDS011;19094;50.972;3.538;2022-10-17T05:36:58;13.32;;;6.47;;
32705;SDS011;19094;50.972;3.538;2022-10-17T05:39:24;21.98;;;7.22;;
32705;SDS011;19094;50.972;3.538;2022-10-17T05:41:49;22.25;;;8.23;;
32705;SDS011;19094;50.972;3.538;2022-10-17T05:44:16;12.80;;;6.68;;
32705;SDS011;19094;50.972;3.538;2022-10-17T05:46:42;18.95;;;8.20;;
32705;SDS011;19094;50.972;3.538;2022-10-17T05:49:08;18.92;;;7.72;;
32705;SDS011;19094;50.972;3.538;2022-10-17T05:51:34;18.75;;;7.30;;
32705;SDS011;19094;50.972;3.538;2022-10-17T05:54:03;13.38;;;6.65;;
32705;SDS011;19094;50.972;3.538;2022-10-17T05:56:30;24.58;;;7.47;;
32705;SDS011;19094;50.972;3.538;2022-10-17T05:58:55;15.75;;;7.03;;
32705;SDS011;19094;50.972;3.538;2022-10-17T06:01:21;20.58;;;7.20;;
32705;SDS011;19094;50.972;3.538;2022-10-17T06:03:48;16.20;;;8.20;;
32705;SDS011;19094;50.972;3.538;2022-10-17T06:06:15;16.42;;;8.13;;
32705;SDS011;19094;50.972;3.538;2022-10-17T06:08:41;17.08;;;7.15;;
32705;SDS011;19094;50.972;3.538;2022-10-17T06:11:07;15.88;;;7.00;;
32705;SDS011;19094;50.972;3.538;2022-10-17T06:13:33;16.50;;;7.55;;
32705;SDS011;19094;50.972;3.538;2022-10-17T06:16:00;23.05;;;6.78;;
32705;SDS011;19094;50.972;3.538;2022-10-17T06:18:27;19.58;;;7.82;;
32705;SDS011;19094;50.972;3.538;2022-10-17T06:20:53;16.80;;;7.97;;
32705;SDS011;19094;50.972;3.538;2022-10-17T06:23:18;16.58;;;7.32;;
32705;SDS011;19094;50.972;3.538;2022-10-17T06:25:44;16.58;;;6.88;;
32705;SDS011;19094;50.972;3.538;2022-10-17T06:28:10;20.23;;;7.45;;
32705;SDS011;19094;50.972;3.538;2022-10-17T06:30:37;24.63;;;8.63;;
32705;SDS011;19094;50.972;3.538;2022-10-17T06:33:04;16.88;;;7.68;;
32705;SDS011;19094;50.972;3.538;2022-10-17T06:35:30;17.52;;;7.00;;
32705;SDS011;19094;50.972;3.538;2022-10-17T06:37:55;16.48;;;6.78;;
32705;SDS011;19094;50.972;3.538;2022-10-17T06:40:21;14.27;;;6.90;;
32705;SDS011;19094;50.972;3.538;2022-10-17T06:42:47;13.13;;;6.85;;
32705;SDS011;19094;50.972;3.538;2022-10-17T06:45:13;15.10;;;7.63;;
32705;SDS011;19094;50.972;3.538;2022-10-17T06:47:39;13.10;;;6.97;;
32705;SDS011;19094;50.972;3.538;2022-10-17T06:50:05;14.75;;;7.95;;
32705;SDS011;19094;50.972;3.538;2022-10-17T06:52:32;18.55;;;7.90;;
32705;SDS011;19094;50.972;3.538;2022-10-17T06:54:58;14.48;;;7.60;;
32705;SDS011;19094;50.972;3.538;2022-10-17T06:57:23;16.08;;;8.55;;
32705;SDS011;19094;50.972;3.538;2022-10-17T06:59:51;17.08;;;7.35;;
32705;SDS011;19094;50.972;3.538;2022-10-17T07:02:18;15.05;;;7.20;;
32705;SDS011;19094;50.972;3.538;2022-10-17T07:04:44;20.98;;;7.55;;
32705;SDS011;19094;50.972;3.538;2022-10-17T07:07:11;12.18;;;7.40;;
32705;SDS011;19094;50.972;3.538;2022-10-17T07:09:37;12.80;;;7.65;;
32705;SDS011;19094;50.972;3.538;2022-10-17T07:12:03;14.95;;;7.72;;
32705;SDS011;19094;50.972;3.538;2022-10-17T07:14:32;13.68;;;7.15;;
32705;SDS011;19094;50.972;3.538;2022-10-17T07:16:58;16.60;;;7.63;;
32705;SDS011;19094;50.972;3.538;2022-10-17T07:19:24;12.40;;;6.90;;
32705;SDS011;19094;50.972;3.538;2022-10-17T07:21:52;13.10;;;7.18;;
32705;SDS011;19094;50.972;3.538;2022-10-17T07:24:18;23.20;;;7.70;;
32705;SDS011;19094;50.972;3.538;2022-10-17T07:26:44;14.07;;;7.38;;
32705;SDS011;19094;50.972;3.538;2022-10-17T07:29:10;14.77;;;6.70;;
32705;SDS011;19094;50.972;3.538;2022-10-17T07:31:36;22.25;;;7.40;;
32705;SDS011;19094;50.972;3.538;2022-10-17T07:34:02;14.25;;;6.78;;
32705;SDS011;19094;50.972;3.538;2022-10-17T07:36:28;16.27;;;7.15;;
32705;SDS011;19094;50.972;3.538;2022-10-17T07:38:53;14.43;;;7.30;;
32705;SDS011;19094;50.972;3.538;2022-10-17T07:41:19;12.98;;;7.55;;
32705;SDS011;19094;50.972;3.538;2022-10-17T07:43:45;16.83;;;8.27;;
32705;SDS011;19094;50.972;3.538;2022-10-17T07:46:11;11.98;;;6.63;;
32705;SDS011;19094;50.972;3.538;2022-10-17T07:48:37;11.23;;;6.65;;
32705;SDS011;19094;50.972;3.538;2022-10-17T07:51:04;14.77;;;6.40;;
32705;SDS011;19094;50.972;3.538;2022-10-17T07:53:35;18.33;;;6.20;;
32705;SDS011;19094;50.972;3.538;2022-10-17T07:56:03;15.45;;;6.65;;
32705;SDS011;19094;50.972;3.538;2022-10-17T07:58:33;19.75;;;8.93;;
32705;SDS011;19094;50.972;3.538;2022-10-17T08:01:00;17.83;;;8.15;;
32705;SDS011;19094;50.972;3.538;2022-10-17T08:03:30;17.27;;;6.90;;
32705;SDS011;19094;50.972;3.538;2022-10-17T08:05:56;13.05;;;6.70;;
32705;SDS011;19094;50.972;3.538;2022-10-17T08:08:26;13.60;;;6.63;;
32705;SDS011;19094;50.972;3.538;2022-10-17T08:10:52;12.75;;;6.55;;
32705;SDS011;19094;50.972;3.538;2022-10-17T08:13:19;14.75;;;7.32;;
32705;SDS011;19094;50.972;3.538;2022-10-17T08:15:45;10.75;;;6.72;;
32705;SDS011;19094;50.972;3.538;2022-10-17T08:18:12;19.23;;;7.65;;
32705;SDS011;19094;50.972;3.538;2022-10-17T08:20:39;14.88;;;7.45;;
32705;SDS011;19094;50.972;3.538;2022-10-17T08:23:05;14.68;;;7.65;;
32705;SDS011;19094;50.972;3.538;2022-10-17T08:25:31;12.73;;;7.07;;
32705;SDS011;19094;50.972;3.538;2022-10-17T08:27:57;14.25;;;6.97;;
32705;SDS011;19094;50.972;3.538;2022-10-17T08:30:23;16.17;;;7.72;;
32705;SDS011;19094;50.972;3.538;2022-10-17T08:32:49;15.50;;;6.78;;
32705;SDS011;19094;50.972;3.538;2022-10-17T08:35:15;13.73;;;6.90;;
32705;SDS011;19094;50.972;3.538;2022-10-17T08:37:41;12.05;;;6.70;;
32705;SDS011;19094;50.972;3.538;2022-10-17T08:40:08;14.25;;;6.75;;
32705;SDS011;19094;50.972;3.538;2022-10-17T08:47:58;17.80;;;6.68;;
32705;SDS011;19094;50.972;3.538;2022-10-17T08:50:30;12.90;;;6.53;;
32705;SDS011;19094;50.972;3.538;2022-10-17T08:53:05;11.73;;;6.90;;
32705;SDS011;19094;50.972;3.538;2022-10-17T08:55:44;10.18;;;6.50;;
32705;SDS011;19094;50.972;3.538;2022-10-17T08:58:22;15.38;;;6.13;;
32705;SDS011;19094;50.972;3.538;2022-10-17T09:03:32;10.63;;;5.93;;
32705;SDS011;19094;50.972;3.538;2022-10-17T09:06:21;14.98;;;6.78;;
32705;SDS011;19094;50.972;3.538;2022-10-17T09:09:11;16.48;;;6.68;;
32705;SDS011;19094;50.972;3.538;2022-10-17T09:11:54;10.63;;;5.93;;
32705;SDS011;19094;50.972;3.538;2022-10-17T09:20:10;11.75;;;5.90;;
32705;SDS011;19094;50.972;3.538;2022-10-17T09:22:42;12.23;;;6.35;;
32705;SDS011;19094;50.972;3.538;2022-10-17T09:25:21;10.60;;;6.07;;
32705;SDS011;19094;50.972;3.538;2022-10-17T09:27:58;13.55;;;6.30;;
32705;SDS011;19094;50.972;3.538;2022-10-17T09:33:10;13.77;;;6.03;;
32705;SDS011;19094;50.972;3.538;2022-10-17T09:35:40;17.92;;;7.65;;
32705;SDS011;19094;50.972;3.538;2022-10-17T09:38:11;13.50;;;6.75;;
32705;SDS011;19094;50.972;3.538;2022-10-17T09:40:42;15.07;;;6.80;;
32705;SDS011;19094;50.972;3.538;2022-10-17T09:43:10;12.95;;;6.28;;
32705;SDS011;19094;50.972;3.538;2022-10-17T09:45:41;10.82;;;6.22;;
32705;SDS011;19094;50.972;3.538;2022-10-17T09:51:09;10.98;;;5.88;;
32705;SDS011;19094;50.972;3.538;2022-10-17T09:53:38;13.63;;;5.20;;
32705;SDS011;19094;50.972;3.538;2022-10-17T09:56:10;12.80;;;6.18;;
32705;SDS011;19094;50.972;3.538;2022-10-17T09:58:42;10.63;;;5.78;;
32705;SDS011;19094;50.972;3.538;2022-10-17T10:03:47;13.57;;;6.53;;
32705;SDS011;19094;50.972;3.538;2022-10-17T10:06:31;18.83;;;6.63;;
32705;SDS011;19094;50.972;3.538;2022-10-17T10:08:58;11.98;;;6.80;;
32705;SDS011;19094;50.972;3.538;2022-10-17T10:14:33;14.80;;;7.50;;
32705;SDS011;19094;50.972;3.538;2022-10-17T10:17:01;11.80;;;6.38;;
32705;SDS011;19094;50.972;3.538;2022-10-17T10:19:35;16.02;;;7.28;;
32705;SDS011;19094;50.972;3.538;2022-10-17T10:22:03;18.00;;;6.45;;
32705;SDS011;19094;50.972;3.538;2022-10-17T10:24:31;14.13;;;5.85;;
32705;SDS011;19094;50.972;3.538;2022-10-17T10:27:02;16.02;;;5.22;;
32705;SDS011;19094;50.972;3.538;2022-10-17T10:29:33;10.55;;;5.63;;
32705;SDS011;19094;50.972;3.538;2022-10-17T10:37:26;10.35;;;5.53;;
32705;SDS011;19094;50.972;3.538;2022-10-17T10:42:44;9.98;;;5.05;;
32705;SDS011;19094;50.972;3.538;2022-10-17T10:47:53;7.18;;;4.35;;
32705;SDS011;19094;50.972;3.538;2022-10-17T10:50:53;12.10;;;5.00;;
32705;SDS011;19094;50.972;3.538;2022-10-17T10:56:10;11.53;;;4.50;;
32705;SDS011;19094;50.972;3.538;2022-10-17T10:58:48;6.95;;;4.22;;
32705;SDS011;19094;50.972;3.538;2022-10-17T11:07:09;6.35;;;3.88;;
32705;SDS011;19094;50.972;3.538;2022-10-17T11:14:53;6.00;;;3.60;;
32705;SDS011;19094;50.972;3.538;2022-10-17T11:17:42;10.80;;;4.20;;
32705;SDS011;19094;50.972;3.538;2022-10-17T11:22:47;9.60;;;3.90;;
32705;SDS011;19094;50.972;3.538;2022-10-17T11:25:35;7.63;;;3.13;;
32705;SDS011;19094;50.972;3.538;2022-10-17T11:28:07;8.13;;;3.65;;
32705;SDS011;19094;50.972;3.538;2022-10-17T11:36:18;5.60;;;3.45;;
32705;SDS011;19094;50.972;3.538;2022-10-17T11:41:28;9.15;;;3.50;;
32705;SDS011;19094;50.972;3.538;2022-10-17T11:44:28;6.30;;;3.25;;
32705;SDS011;19094;50.972;3.538;2022-10-17T11:47:16;7.05;;;3.67;;
32705;SDS011;19094;50.972;3.538;2022-10-17T11:55:04;5.38;;;3.38;;
32705;SDS011;19094;50.972;3.538;2022-10-17T12:06:30;7.15;;;3.92;;
32705;SDS011;19094;50.972;3.538;2022-10-17T12:08:56;9.10;;;3.85;;
32705;SDS011;19094;50.972;3.538;2022-10-17T12:17:02;12.40;;;4.10;;
32705;SDS011;19094;50.972;3.538;2022-10-17T12:19:36;7.18;;;3.45;;
32705;SDS011;19094;50.972;3.538;2022-10-17T12:25:03;7.40;;;3.65;;
32705;SDS011;19094;50.972;3.538;2022-10-17T12:30:25;8.35;;;3.72;;
32705;SDS011;19094;50.972;3.538;2022-10-17T12:35:46;5.47;;;2.60;;
32705;SDS011;19094;50.972;3.538;2022-10-17T12:38:36;6.45;;;2.80;;
32705;SDS011;19094;50.972;3.538;2022-10-17T12:41:03;5.57;;;2.70;;
32705;SDS011;19094;50.972;3.538;2022-10-17T12:45:56;7.57;;;2.60;;
32705;SDS011;19094;50.972;3.538;2022-10-17T12:56:21;6.45;;;3.30;;
32705;SDS011;19094;50.972;3.538;2022-10-17T12:59:06;7.45;;;3.40;;
32705;SDS011;19094;50.972;3.538;2022-10-17T13:01:39;5.10;;;2.80;;
32705;SDS011;19094;50.972;3.538;2022-10-17T13:04:10;4.13;;;2.67;;
32705;SDS011;19094;50.972;3.538;2022-10-17T13:06:43;6.88;;;2.95;;
32705;SDS011;19094;50.972;3.538;2022-10-17T13:09:28;6.43;;;2.83;;
32705;SDS011;19094;50.972;3.538;2022-10-17T13:11:57;8.73;;;2.80;;
32705;SDS011;19094;50.972;3.538;2022-10-17T13:14:26;9.55;;;3.08;;
32705;SDS011;19094;50.972;3.538;2022-10-17T13:16:54;5.90;;;2.70;;
32705;SDS011;19094;50.972;3.538;2022-10-17T13:19:24;10.88;;;3.22;;
32705;SDS011;19094;50.972;3.538;2022-10-17T13:21:53;8.88;;;2.72;;
32705;SDS011;19094;50.972;3.538;2022-10-17T13:26:56;4.25;;;2.55;;
32705;SDS011;19094;50.972;3.538;2022-10-17T13:29:23;6.00;;;2.53;;
32705;SDS011;19094;50.972;3.538;2022-10-17T13:31:53;6.93;;;2.83;;
32705;SDS011;19094;50.972;3.538;2022-10-17T13:34:25;8.95;;;3.08;;
32705;SDS011;19094;50.972;3.538;2022-10-17T13:37:01;8.32;;;2.95;;
32705;SDS011;19094;50.972;3.538;2022-10-17T13:39:33;20.70;;;3.30;;
32705;SDS011;19094;50.972;3.538;2022-10-17T13:42:15;7.32;;;2.58;;
32705;SDS011;19094;50.972;3.538;2022-10-17T13:44:53;9.05;;;3.67;;
32705;SDS011;19094;50.972;3.538;2022-10-17T13:47:20;7.05;;;2.70;;
32705;SDS011;19094;50.972;3.538;2022-10-17T13:49:47;6.07;;;2.65;;
32705;SDS011;19094;50.972;3.538;2022-10-17T13:52:15;6.95;;;2.60;;
32705;SDS011;19094;50.972;3.538;2022-10-17T13:54:44;5.95;;;2.45;;
32705;SDS011;19094;50.972;3.538;2022-10-17T13:57:16;8.23;;;2.75;;
32705;SDS011;19094;50.972;3.538;2022-10-17T13:59:48;7.25;;;2.45;;
32705;SDS011;19094;50.972;3.538;2022-10-17T14:02:20;7.95;;;2.63;;
32705;SDS011;19094;50.972;3.538;2022-10-17T14:08:12;6.85;;;2.50;;
32705;SDS011;19094;50.972;3.538;2022-10-17T14:12:59;6.05;;;2.65;;
32705;SDS011;19094;50.972;3.538;2022-10-17T14:15:29;10.32;;;3.80;;
32705;SDS011;19094;50.972;3.538;2022-10-17T14:18:04;12.70;;;2.58;;
32705;SDS011;19094;50.972;3.538;2022-10-17T14:20:32;8.95;;;2.97;;
32705;SDS011;19094;50.972;3.538;2022-10-17T14:23:02;5.82;;;2.72;;
32705;SDS011;19094;50.972;3.538;2022-10-17T14:25:32;8.68;;;3.30;;
32705;SDS011;19094;50.972;3.538;2022-10-17T14:30:34;6.50;;;3.08;;
32705;SDS011;19094;50.972;3.538;2022-10-17T14:33:04;9.68;;;3.10;;
32705;SDS011;19094;50.972;3.538;2022-10-17T14:35:32;6.97;;;2.80;;
32705;SDS011;19094;50.972;3.538;2022-10-17T14:38:03;8.05;;;3.00;;
32705;SDS011;19094;50.972;3.538;2022-10-17T14:40:31;6.45;;;2.85;;
32705;SDS011;19094;50.972;3.538;2022-10-17T14:42:59;10.98;;;4.35;;
32705;SDS011;19094;50.972;3.538;2022-10-17T14:45:32;9.07;;;3.50;;
32705;SDS011;19094;50.972;3.538;2022-10-17T14:48:01;6.43;;;3.08;;
32705;SDS011;19094;50.972;3.538;2022-10-17T14:50:38;7.68;;;3.50;;
32705;SDS011;19094;50.972;3.538;2022-10-17T14:55:34;9.52;;;3.92;;
32705;SDS011;19094;50.972;3.538;2022-10-17T14:58:18;11.48;;;5.60;;
32705;SDS011;19094;50.972;3.538;2022-10-17T15:00:48;15.57;;;10.18;;
32705;SDS011;19094;50.972;3.538;2022-10-17T15:03:14;10.73;;;5.60;;
32705;SDS011;19094;50.972;3.538;2022-10-17T15:05:43;11.65;;;5.95;;
32705;SDS011;19094;50.972;3.538;2022-10-17T15:08:13;12.73;;;4.65;;
32705;SDS011;19094;50.972;3.538;2022-10-17T15:10:40;8.48;;;3.13;;
32705;SDS011;19094;50.972;3.538;2022-10-17T15:13:06;7.10;;;3.75;;
32705;SDS011;19094;50.972;3.538;2022-10-17T15:15:32;5.90;;;3.85;;
32705;SDS011;19094;50.972;3.538;2022-10-17T15:17:59;6.47;;;3.25;;
32705;SDS011;19094;50.972;3.538;2022-10-17T15:20:25;6.90;;;3.00;;
32705;SDS011;19094;50.972;3.538;2022-10-17T15:22:54;9.35;;;3.15;;
32705;SDS011;19094;50.972;3.538;2022-10-17T15:25:21;7.97;;;3.47;;
32705;SDS011;19094;50.972;3.538;2022-10-17T15:27:47;7.10;;;2.97;;
32705;SDS011;19094;50.972;3.538;2022-10-17T15:30:26;10.88;;;6.03;;
32705;SDS011;19094;50.972;3.538;2022-10-17T15:32:56;6.27;;;2.70;;
32705;SDS011;19094;50.972;3.538;2022-10-17T15:35:23;8.57;;;3.10;;
32705;SDS011;19094;50.972;3.538;2022-10-17T15:37:49;3.92;;;3.00;;
32705;SDS011;19094;50.972;3.538;2022-10-17T15:40:16;8.35;;;3.47;;
32705;SDS011;19094;50.972;3.538;2022-10-17T15:42:45;5.72;;;3.47;;
32705;SDS011;19094;50.972;3.538;2022-10-17T15:45:11;8.32;;;5.10;;
32705;SDS011;19094;50.972;3.538;2022-10-17T15:47:40;7.55;;;4.35;;
32705;SDS011;19094;50.972;3.538;2022-10-17T15:50:09;8.82;;;3.75;;
32705;SDS011;19094;50.972;3.538;2022-10-17T15:52:37;7.65;;;4.63;;
32705;SDS011;19094;50.972;3.538;2022-10-17T15:55:03;9.00;;;4.13;;
32705;SDS011;19094;50.972;3.538;2022-10-17T15:57:30;12.52;;;4.15;;
32705;SDS011;19094;50.972;3.538;2022-10-17T16:00:00;14.23;;;4.68;;
32705;SDS011;19094;50.972;3.538;2022-10-17T16:02:25;9.52;;;5.15;;
32705;SDS011;19094;50.972;3.538;2022-10-17T16:04:51;8.75;;;4.60;;
32705;SDS011;19094;50.972;3.538;2022-10-17T16:07:18;13.00;;;4.70;;
32705;SDS011;19094;50.972;3.538;2022-10-17T16:09:44;17.17;;;4.57;;
32705;SDS011;19094;50.972;3.538;2022-10-17T16:12:11;12.70;;;4.35;;
32705;SDS011;19094;50.972;3.538;2022-10-17T16:15:00;14.10;;;5.10;;
32705;SDS011;19094;50.972;3.538;2022-10-17T16:17:27;11.07;;;5.20;;
32705;SDS011;19094;50.972;3.538;2022-10-17T16:19:52;13.57;;;5.97;;
32705;SDS011;19094;50.972;3.538;2022-10-17T16:22:31;12.68;;;6.97;;
32705;SDS011;19094;50.972;3.538;2022-10-17T16:25:00;12.48;;;7.22;;
32705;SDS011;19094;50.972;3.538;2022-10-17T16:27:33;13.50;;;6.75;;
32705;SDS011;19094;50.972;3.538;2022-10-17T16:30:00;14.02;;;6.07;;
32705;SDS011;19094;50.972;3.538;2022-10-17T16:32:27;10.77;;;6.65;;
32705;SDS011;19094;50.972;3.538;2022-10-17T16:34:53;22.48;;;10.60;;
32705;SDS011;19094;50.972;3.538;2022-10-17T16:37:19;37.08;;;22.60;;
32705;SDS011;19094;50.972;3.538;2022-10-17T16:39:44;17.08;;;9.52;;
32705;SDS011;19094;50.972;3.538;2022-10-17T16:42:16;13.13;;;7.55;;
32705;SDS011;19094;50.972;3.538;2022-10-17T16:44:42;11.00;;;6.18;;
32705;SDS011;19094;50.972;3.538;2022-10-17T16:47:08;16.33;;;7.20;;
32705;SDS011;19094;50.972;3.538;2022-10-17T16:49:34;13.50;;;6.88;;
32705;SDS011;19094;50.972;3.538;2022-10-17T16:51:59;13.35;;;6.05;;
32705;SDS011;19094;50.972;3.538;2022-10-17T16:54:25;15.05;;;7.10;;
32705;SDS011;19094;50.972;3.538;2022-10-17T16:56:51;14.15;;;5.95;;
32705;SDS011;19094;50.972;3.538;2022-10-17T16:59:16;15.23;;;6.10;;
32705;SDS011;19094;50.972;3.538;2022-10-17T17:01:42;7.72;;;4.90;;
32705;SDS011;19094;50.972;3.538;2022-10-17T17:04:08;11.77;;;5.40;;
32705;SDS011;19094;50.972;3.538;2022-10-17T17:06:34;14.30;;;5.97;;
32705;SDS011;19094;50.972;3.538;2022-10-17T17:09:00;11.48;;;6.25;;
32705;SDS011;19094;50.972;3.538;2022-10-17T17:11:27;19.65;;;8.23;;
32705;SDS011;19094;50.972;3.538;2022-10-17T17:13:53;25.83;;;10.98;;
32705;SDS011;19094;50.972;3.538;2022-10-17T17:16:21;20.30;;;12.35;;
32705;SDS011;19094;50.972;3.538;2022-10-17T17:18:53;13.43;;;7.60;;